Terminal Aerodrome Forecast
Issued by NWS

Home | Current Version | Previous Version | Text Only | Print | Product List | Glossary On
Versions: 1 2 3 4 5 6 7 8 9 10 11 12 13 14 15 16 17 18
000
FTUS45 KPSR 211720
TAFIWA
TAF
KIWA 211720Z 2118/2218 13003KT P6SM FEW200
     FM212000 30004KT P6SM FEW200 BKN250
     FM220300 11005KT P6SM BKN200 OVC250=

USA.gov is the U.S. government's official web portal to all federal, state and local government web resources and services.